Pittenweem, United Kingdom
Current Conditions -  °F | °C
As of 11:03 AM on Tuesday 21 Oct 2014 (Local Time) from EGQL Reporting Station
Scattered Clouds Scattered Clouds  
Wind Chill: 52°   Ceiling: Unl
Heat Index: 52°   Visibility: 6mi
Dew Point: 39°   Wind: 23mph
Humidity: 62%   Direction: 290°WNW
Pressure: 29.26"   Gusts: NA
Location:  56.21°N, 2.73°W
Report Text: EGQL 211003Z 29020KT 9999 FEW010 SCT060 11/04 Q0991 BLU
Loading
Personal Weather Stations






























Interactive Weather Map
Tropical Storm Tracking
New forecast layout! Learn more

10-Day Weather Forecast

Advertisements
Track Severe Weather on mobile